createdAt,value
2017-02-18T08:28:31.873Z,50.6
2017-02-18T08:28:41.859Z,50.6
2017-02-18T08:28:57.658Z,50.6
2017-02-18T08:29:02.146Z,50.6
2017-02-18T08:29:11.864Z,50.6
2017-02-18T08:29:21.836Z,50.6
2017-02-18T08:29:31.826Z,50.6
2017-02-18T08:29:41.850Z,50.6
2017-02-18T08:29:51.831Z,50.6
2017-02-18T08:30:01.816Z,50.6
2017-02-18T08:30:11.381Z,50.6
2017-02-18T08:30:21.418Z,50.6
2017-02-18T08:30:31.793Z,50.6
2017-02-18T08:30:41.776Z,50.6
2017-02-18T08:30:51.782Z,50.6
2017-02-18T08:31:01.355Z,50.6
2017-02-18T08:31:10.933Z,50.6
2017-02-18T08:31:21.752Z,50.6
2017-02-18T08:31:31.766Z,50.6
2017-02-18T08:31:41.757Z,50.6
2017-02-18T08:31:51.310Z,50.6
2017-02-18T08:32:01.730Z,50.6
2017-02-18T08:32:11.728Z,50.6
2017-02-18T08:32:22.000Z,50.6
2017-02-18T08:32:31.716Z,50.6
2017-02-18T08:32:41.707Z,50.6
2017-02-18T08:32:51.285Z,50.6
2017-02-18T08:33:01.693Z,50.6
2017-02-18T08:33:11.698Z,50.6
2017-02-18T08:33:21.692Z,50.6
2017-02-18T08:33:31.263Z,50.6
2017-02-18T08:33:41.696Z,50.6
2017-02-18T08:33:51.244Z,50.6
2017-02-18T08:34:01.673Z,50.6
2017-02-18T08:34:10.854Z,50.6
2017-02-18T08:34:21.635Z,50.6
2017-02-18T08:34:31.659Z,50.6
2017-02-18T08:34:41.626Z,50.6
2017-02-18T08:34:51.638Z,50.6
2017-02-18T08:35:01.645Z,50.6
2017-02-18T08:35:11.623Z,50.6
2017-02-18T08:35:21.660Z,50.6
2017-02-18T08:35:31.211Z,50.6
2017-02-18T08:35:41.609Z,50.6
2017-02-18T08:35:51.307Z,50.6
2017-02-18T08:36:01.597Z,50.6
2017-02-18T08:36:11.574Z,50.6
2017-02-18T08:36:21.562Z,56.3
2017-02-18T08:36:31.166Z,56.3
2017-02-18T08:36:41.554Z,56.3
2017-02-18T08:36:51.199Z,56.3
2017-02-18T08:37:01.141Z,61.9
2017-02-18T08:37:11.545Z,61.9
2017-02-18T08:37:21.112Z,61.9
2017-02-18T08:37:31.104Z,61.9
2017-02-18T08:37:41.556Z,61.9
2017-02-18T08:37:51.524Z,61.9
2017-02-18T08:38:01.584Z,61.9
2017-02-18T08:38:11.076Z,61.9
2017-02-18T08:38:21.793Z,61.9
2017-02-18T08:38:31.075Z,61.9
2017-02-18T08:38:41.477Z,61.9
2017-02-18T08:38:51.111Z,61.9
2017-02-18T08:39:01.058Z,61.9
2017-02-18T08:39:11.054Z,61.9
2017-02-18T08:39:21.070Z,61.9
2017-02-18T08:39:31.454Z,61.9
2017-02-18T08:39:41.461Z,67.5
2017-02-18T08:39:51.017Z,67.5
2017-02-18T08:40:01.466Z,67.5
2017-02-18T08:40:11.427Z,67.5
2017-02-18T08:40:21.421Z,67.5
2017-02-18T08:40:31.421Z,67.5
2017-02-18T08:40:41.408Z,67.5
2017-02-18T08:40:51.409Z,67.5
2017-02-18T08:41:00.983Z,67.5
2017-02-18T08:41:11.391Z,67.5
2017-02-18T08:41:21.397Z,67.5
2017-02-18T08:41:31.379Z,67.5
2017-02-18T08:41:41.401Z,67.5
2017-02-18T08:41:51.369Z,67.5
2017-02-18T08:42:01.367Z,73.1
2017-02-18T08:42:10.087Z,73.1
2017-02-18T08:42:21.341Z,73.1
2017-02-18T08:42:30.914Z,78.8
2017-02-18T08:42:41.346Z,78.8
2017-02-18T08:42:51.323Z,78.8
2017-02-18T08:43:00.895Z,73.1
2017-02-18T08:43:11.596Z,73.1
2017-02-18T08:43:21.313Z,73.1
2017-02-18T08:43:31.304Z,73.1
2017-02-18T08:43:41.294Z,73.1
2017-02-18T08:43:51.344Z,73.1
2017-02-18T08:44:00.853Z,73.1
2017-02-18T08:44:11.279Z,73.1
2017-02-18T08:44:21.264Z,78.8
2017-02-18T08:44:31.255Z,78.8
2017-02-18T08:44:41.271Z,78.8
2017-02-18T08:44:51.527Z,84.4
2017-02-18T08:45:01.309Z,84.4
2017-02-18T08:45:11.244Z,84.4
2017-02-18T08:45:21.227Z,84.4
2017-02-18T08:45:31.213Z,78.8
2017-02-18T08:45:41.218Z,78.8
2017-02-18T08:45:51.205Z,78.8
2017-02-18T08:46:01.198Z,78.8
2017-02-18T08:46:11.198Z,73.1
2017-02-18T08:46:21.474Z,73.1
2017-02-18T08:46:31.465Z,73.1
2017-02-18T08:46:41.462Z,73.1
2017-02-18T08:46:51.442Z,73.1
2017-02-18T08:47:01.177Z,73.1
2017-02-18T08:47:11.440Z,73.1
2017-02-18T08:47:21.142Z,73.1
2017-02-18T08:47:31.142Z,73.1
2017-02-18T08:47:41.141Z,73.1
2017-02-18T08:47:51.153Z,73.1
2017-02-18T08:48:01.126Z,73.1
2017-02-18T08:48:10.418Z,73.1
2017-02-18T08:48:21.134Z,73.1
2017-02-18T08:48:31.104Z,73.1
2017-02-18T08:48:41.414Z,78.8
2017-02-18T08:48:51.091Z,78.8
2017-02-18T08:49:01.088Z,84.4
2017-02-18T08:49:11.113Z,84.4
2017-02-18T08:49:21.674Z,84.4
2017-02-18T08:49:31.089Z,84.4
2017-02-18T08:49:40.661Z,84.4
2017-02-18T08:49:51.067Z,90
2017-02-18T08:50:01.075Z,90
2017-02-18T08:50:11.053Z,90
2017-02-18T08:50:21.323Z,90
2017-02-18T08:50:31.324Z,90
2017-02-18T08:50:40.907Z,90
2017-02-18T08:50:51.018Z,90
2017-02-18T08:51:00.595Z,90
2017-02-18T08:51:11.044Z,90
2017-02-18T08:51:20.880Z,90
2017-02-18T08:51:31.002Z,90
2017-02-18T08:51:41.027Z,90
2017-02-18T08:51:50.988Z,90
2017-02-18T08:52:00.576Z,84.4
2017-02-18T08:52:10.974Z,84.4
2017-02-18T08:52:20.959Z,84.4
2017-02-18T08:52:30.534Z,90
2017-02-18T08:52:40.955Z,90
2017-02-18T08:52:50.948Z,90
2017-02-18T08:53:00.547Z,90
2017-02-18T08:53:10.935Z,95.6
2017-02-18T08:53:20.931Z,95.6
2017-02-18T08:53:30.944Z,101.3
2017-02-18T08:53:40.496Z,112.5
2017-02-18T08:53:50.523Z,118.1
2017-02-18T08:54:00.479Z,123.8
2017-02-18T08:54:10.482Z,135
2017-02-18T08:54:20.885Z,140.6
2017-02-18T08:54:30.880Z,146.3
2017-02-18T08:54:40.870Z,146.3
2017-02-18T08:54:50.880Z,146.3
2017-02-18T08:55:00.883Z,140.6
2017-02-18T08:55:10.888Z,140.6
2017-02-18T08:55:20.866Z,140.6
2017-02-18T08:55:31.171Z,140.6
2017-02-18T08:55:40.850Z,135
2017-02-18T08:55:50.829Z,135
2017-02-18T08:56:00.728Z,129.4
2017-02-18T08:56:10.416Z,129.4
2017-02-18T08:56:21.115Z,123.8
2017-02-18T08:56:30.819Z,118.1
2017-02-18T08:56:40.817Z,118.1
2017-02-18T08:56:50.808Z,118.1
2017-02-18T08:57:00.790Z,118.1
2017-02-18T08:57:10.787Z,118.1
2017-02-18T08:57:20.364Z,118.1
2017-02-18T08:57:30.349Z,118.1
2017-02-18T08:57:40.765Z,118.1
2017-02-18T08:57:50.770Z,112.5
2017-02-18T08:58:00.758Z,112.5
2017-02-18T08:58:09.914Z,112.5
2017-02-18T08:58:20.737Z,112.5
2017-02-18T08:58:30.308Z,112.5
2017-02-18T08:58:40.747Z,112.5
2017-02-18T08:58:50.314Z,112.5
2017-02-18T08:59:00.301Z,112.5
2017-02-18T08:59:10.719Z,112.5
2017-02-18T08:59:20.722Z,112.5
2017-02-18T08:59:30.707Z,112.5
2017-02-18T08:59:40.688Z,112.5
2017-02-18T08:59:50.695Z,118.1
2017-02-18T09:00:00.974Z,118.1
2017-02-18T09:00:10.688Z,118.1
2017-02-18T09:00:20.954Z,118.1
2017-02-18T09:00:30.671Z,118.1
2017-02-18T09:00:40.952Z,123.8
2017-02-18T09:00:50.927Z,129.4
2017-02-18T09:01:00.226Z,135
2017-02-18T09:01:09.796Z,140.6
2017-02-18T09:01:20.940Z,146.3
2017-02-18T09:01:30.919Z,146.3
2017-02-18T09:01:40.914Z,146.3
2017-02-18T09:01:50.615Z,146.3
2017-02-18T09:02:00.471Z,146.3
2017-02-18T09:02:09.778Z,151.9
2017-02-18T09:02:20.179Z,151.9
2017-02-18T09:02:30.167Z,146.3
2017-02-18T09:02:40.871Z,140.6
2017-02-18T09:02:50.443Z,129.4
2017-02-18T09:03:00.573Z,123.8
2017-02-18T09:03:10.572Z,118.1
2017-02-18T09:03:20.136Z,118.1
2017-02-18T09:03:30.543Z,118.1
2017-02-18T09:03:40.533Z,112.5
2017-02-18T09:03:50.616Z,112.5
2017-02-18T09:04:00.523Z,112.5
2017-02-18T09:04:09.286Z,112.5
2017-02-18T09:04:20.530Z,112.5
2017-02-18T09:04:30.366Z,106.9
2017-02-18T09:04:40.509Z,106.9
2017-02-18T09:04:50.491Z,106.9
2017-02-18T09:04:59.647Z,106.9
2017-02-18T09:05:10.066Z,106.9
2017-02-18T09:05:20.472Z,106.9
2017-02-18T09:05:30.488Z,106.9
2017-02-18T09:05:40.041Z,106.9
2017-02-18T09:05:50.186Z,106.9
2017-02-18T09:06:00.452Z,106.9
2017-02-18T09:06:10.734Z,112.5
2017-02-18T09:06:20.444Z,112.5
2017-02-18T09:06:30.712Z,112.5
2017-02-18T09:06:40.426Z,112.5
2017-02-18T09:06:50.425Z,118.1
2017-02-18T09:07:00.006Z,118.1
2017-02-18T09:07:09.979Z,118.1
2017-02-18T09:07:20.403Z,118.1
2017-02-18T09:07:30.422Z,118.1
2017-02-18T09:07:40.699Z,118.1
2017-02-18T09:07:50.378Z,118.1
2017-02-18T09:08:00.375Z,123.8
2017-02-18T09:08:10.391Z,123.8
2017-02-18T09:08:20.643Z,123.8
2017-02-18T09:08:30.351Z,129.4
2017-02-18T09:08:40.415Z,123.8
2017-02-18T09:08:50.346Z,123.8
2017-02-18T09:09:00.347Z,123.8
2017-02-18T09:09:09.509Z,123.8
2017-02-18T09:09:20.341Z,123.8
2017-02-18T09:09:30.332Z,123.8
2017-02-18T09:09:40.324Z,123.8
2017-02-18T09:09:50.324Z,129.4
2017-02-18T09:09:59.903Z,129.4
2017-02-18T09:10:09.472Z,129.4
2017-02-18T09:10:20.292Z,129.4
2017-02-18T09:10:30.279Z,129.4
2017-02-18T09:10:40.290Z,123.8
2017-02-18T09:10:49.874Z,118.1
2017-02-18T09:10:59.847Z,118.1
2017-02-18T09:11:10.256Z,118.1
2017-02-18T09:11:19.848Z,123.8
2017-02-18T09:11:30.251Z,129.4
2017-02-18T09:11:40.243Z,135
2017-02-18T09:11:50.228Z,140.6
2017-02-18T09:11:59.807Z,146.3
2017-02-18T09:12:09.253Z,151.9
2017-02-18T09:12:19.829Z,151.9
2017-02-18T09:12:30.227Z,151.9
2017-02-18T09:12:40.221Z,146.3
2017-02-18T09:13:05.099Z,146.3
2017-02-18T09:13:12.877Z,151.9
2017-02-18T09:13:19.557Z,151.9
2017-02-18T09:13:29.957Z,157.5
2017-02-18T09:13:41.657Z,151.9
2017-02-18T09:13:49.946Z,151.9
2017-02-18T09:13:59.538Z,146.3
2017-02-18T09:14:09.533Z,140.6
2017-02-18T09:14:19.924Z,135
2017-02-18T09:14:29.915Z,135
2017-02-18T09:14:39.936Z,129.4
2017-02-18T09:14:53.267Z,129.4
2017-02-18T09:15:14.701Z,135
2017-02-18T09:15:19.498Z,140.6
2017-02-18T09:15:29.468Z,151.9
2017-02-18T09:15:39.883Z,163.1
2017-02-18T09:15:49.880Z,157.5
2017-02-18T09:15:59.881Z,157.5
2017-02-18T09:16:08.636Z,151.9
2017-02-18T09:16:19.858Z,151.9
2017-02-18T09:16:29.853Z,151.9
2017-02-18T09:16:39.891Z,151.9
2017-02-18T09:16:49.851Z,151.9
2017-02-18T09:16:59.843Z,151.9
2017-02-18T09:17:09.001Z,151.9
2017-02-18T09:17:20.118Z,151.9
2017-02-18T09:17:29.814Z,151.9
2017-02-18T09:17:39.808Z,151.9
2017-02-18T09:17:49.798Z,151.9
2017-02-18T09:18:00.095Z,151.9
2017-02-18T09:18:09.816Z,151.9
2017-02-18T09:18:19.798Z,157.5
2017-02-18T09:18:30.075Z,157.5
2017-02-18T09:18:39.785Z,157.5
2017-02-18T09:18:49.359Z,157.5
2017-02-18T09:19:00.107Z,157.5
2017-02-18T09:19:09.757Z,157.5
2017-02-18T09:19:19.394Z,151.9
2017-02-18T09:19:29.757Z,151.9
2017-02-18T09:19:39.355Z,151.9
2017-02-18T09:19:48.892Z,151.9
2017-02-18T09:19:59.308Z,151.9
2017-02-18T09:20:09.334Z,151.9
2017-02-18T09:20:19.304Z,151.9
2017-02-18T09:20:29.993Z,151.9
2017-02-18T09:20:39.699Z,151.9
2017-02-18T09:20:49.688Z,157.5
2017-02-18T09:20:59.713Z,157.5
2017-02-18T09:21:09.261Z,157.5
2017-02-18T09:21:19.684Z,157.5
2017-02-18T09:21:29.689Z,157.5
2017-02-18T09:21:39.547Z,157.5
2017-02-18T09:21:49.672Z,163.1
2017-02-18T09:21:59.246Z,163.1
2017-02-18T09:22:08.805Z,163.1
2017-02-18T09:22:19.662Z,168.8
2017-02-18T09:22:29.222Z,168.8
2017-02-18T09:22:39.912Z,168.8
2017-02-18T09:22:49.658Z,168.8
2017-02-18T09:22:58.802Z,174.4
2017-02-18T09:23:09.615Z,185.6
2017-02-18T09:23:19.600Z,208.1
2017-02-18T09:23:29.599Z,258.8
2017-02-18T09:23:39.168Z,247.5
2017-02-18T09:23:49.917Z,191.3
2017-02-18T09:23:59.580Z,180
2017-02-18T09:24:09.174Z,185.6
2017-02-18T09:24:19.437Z,180
2017-02-18T09:24:29.136Z,185.6
2017-02-18T09:24:39.550Z,196.9
2017-02-18T09:24:49.592Z,202.5
2017-02-18T09:24:59.552Z,241.9
2017-02-18T09:25:09.417Z,270
2017-02-18T09:25:19.110Z,264.4
2017-02-18T09:25:29.131Z,247.5
2017-02-18T09:25:39.535Z,202.5
2017-02-18T09:25:48.273Z,202.5
2017-02-18T09:25:59.505Z,191.3
2017-02-18T09:26:09.514Z,174.4
2017-02-18T09:26:19.504Z,168.8
2017-02-18T09:26:29.080Z,168.8
2017-02-18T09:26:39.481Z,174.4
2017-02-18T09:26:49.049Z,174.4
2017-02-18T09:26:58.646Z,174.4
2017-02-18T09:27:09.467Z,168.8
2017-02-18T09:27:19.732Z,168.8
2017-02-18T09:27:29.190Z,174.4
2017-02-18T09:27:39.457Z,168.8
2017-02-18T09:27:49.454Z,163.1
2017-02-18T09:27:59.447Z,163.1
2017-02-18T09:28:09.000Z,163.1
2017-02-18T09:28:19.445Z,163.1
2017-02-18T09:28:29.700Z,168.8
2017-02-18T09:28:39.002Z,151.9
2017-02-18T09:28:48.981Z,151.9
2017-02-18T09:28:58.988Z,146.3
2017-02-18T09:29:09.400Z,146.3
2017-02-18T09:29:19.399Z,146.3
2017-02-18T09:29:29.404Z,146.3
2017-02-18T09:29:39.395Z,151.9
2017-02-18T09:29:49.365Z,157.5
2017-02-18T09:29:59.348Z,163.1
2017-02-18T09:30:09.227Z,163.1
2017-02-18T09:30:19.342Z,168.8
2017-02-18T09:30:29.616Z,174.4
2017-02-18T09:30:39.330Z,168.8
2017-02-18T09:30:49.217Z,174.4
2017-02-18T09:30:58.919Z,230.6
2017-02-18T09:31:09.323Z,225
2017-02-18T09:31:19.326Z,225
2017-02-18T09:31:29.334Z,180
2017-02-18T09:31:39.299Z,168.8
2017-02-18T09:31:49.597Z,163.1
2017-02-18T09:31:58.872Z,157.5
2017-02-18T09:32:08.880Z,151.9
2017-02-18T09:32:19.276Z,151.9
2017-02-18T09:32:29.268Z,151.9
2017-02-18T09:32:39.256Z,151.9
2017-02-18T09:32:49.260Z,151.9
2017-02-18T09:32:59.269Z,151.9
2017-02-18T09:33:09.257Z,151.9
2017-02-18T09:33:19.230Z,157.5
2017-02-18T09:33:29.249Z,157.5
2017-02-18T09:33:38.809Z,157.5
2017-02-18T09:33:49.231Z,163.1
2017-02-18T09:33:59.215Z,168.8
2017-02-18T09:34:08.785Z,168.8
2017-02-18T09:34:19.202Z,174.4
2017-02-18T09:34:29.493Z,174.4
2017-02-18T09:34:39.204Z,180
2017-02-18T09:34:49.196Z,180
2017-02-18T09:34:58.761Z,208.1
2017-02-18T09:35:09.164Z,213.8
2017-02-18T09:35:19.166Z,208.1
2017-02-18T09:35:29.159Z,174.4
2017-02-18T09:35:39.170Z,168.8
2017-02-18T09:35:49.152Z,168.8
2017-02-18T09:35:59.147Z,168.8
2017-02-18T09:36:08.718Z,163.1
2017-02-18T09:36:18.743Z,163.1
2017-02-18T09:36:29.135Z,163.1
2017-02-18T09:36:39.122Z,163.1
2017-02-18T09:36:48.692Z,163.1
2017-02-18T09:36:59.112Z,157.5
2017-02-18T09:37:09.113Z,157.5
2017-02-18T09:37:19.108Z,157.5
2017-02-18T09:37:29.091Z,163.1
2017-02-18T09:37:38.681Z,157.5
2017-02-18T09:37:49.084Z,157.5
2017-02-18T09:37:59.067Z,157.5
2017-02-18T09:38:08.353Z,163.1
2017-02-18T09:38:19.652Z,163.1
2017-02-18T09:38:29.043Z,163.1
2017-02-18T09:38:39.347Z,168.8
2017-02-18T09:38:49.038Z,168.8
2017-02-18T09:38:58.622Z,174.4
2017-02-18T09:39:08.765Z,208.1
2017-02-18T09:39:19.026Z,208.1
2017-02-18T09:39:29.013Z,185.6
2017-02-18T09:39:39.024Z,174.4
2017-02-18T09:39:48.591Z,157.5
2017-02-18T09:39:59.018Z,151.9
2017-02-18T09:40:08.561Z,146.3
2017-02-18T09:40:19.001Z,140.6
2017-02-18T09:40:28.978Z,140.6
2017-02-18T09:40:38.963Z,140.6
2017-02-18T09:40:48.960Z,135
2017-02-18T09:40:58.960Z,135
2017-02-18T09:41:08.537Z,135
2017-02-18T09:41:18.935Z,135
2017-02-18T09:41:28.933Z,129.4
2017-02-18T09:41:38.929Z,129.4
2017-02-18T09:41:48.935Z,135
2017-02-18T09:41:58.922Z,135
2017-02-18T09:42:08.113Z,140.6
2017-02-18T09:42:18.928Z,146.3
2017-02-18T09:42:28.891Z,163.1
2017-02-18T09:42:38.906Z,163.1
2017-02-18T09:42:48.889Z,163.1
2017-02-18T09:42:58.041Z,151.9
2017-02-18T09:43:08.174Z,151.9
2017-02-18T09:43:18.872Z,151.9
2017-02-18T09:43:28.894Z,151.9
2017-02-18T09:43:39.156Z,151.9
2017-02-18T09:43:48.849Z,157.5
2017-02-18T09:43:58.444Z,157.5
2017-02-18T09:44:08.849Z,157.5
2017-02-18T09:44:18.836Z,157.5
2017-02-18T09:44:28.847Z,157.5
2017-02-18T09:44:38.819Z,157.5
2017-02-18T09:44:48.725Z,157.5
2017-02-18T09:44:58.416Z,163.1
2017-02-18T09:45:08.383Z,163.1
2017-02-18T09:45:18.786Z,157.5
2017-02-18T09:45:29.087Z,157.5
2017-02-18T09:45:39.062Z,157.5
2017-02-18T09:45:49.080Z,157.5
2017-02-18T09:45:58.379Z,157.5
2017-02-18T09:46:08.382Z,157.5
2017-02-18T09:46:18.771Z,157.5
2017-02-18T09:46:28.778Z,163.1
2017-02-18T09:46:38.772Z,163.1
2017-02-18T09:46:48.734Z,163.1
2017-02-18T09:46:58.752Z,168.8
2017-02-18T09:47:08.308Z,163.1
2017-02-18T09:47:18.481Z,185.6
2017-02-18T09:47:28.745Z,168.8
2017-02-18T09:47:38.720Z,163.1
2017-02-18T09:47:48.783Z,163.1
2017-02-18T09:47:58.992Z,163.1
2017-02-18T09:48:07.863Z,163.1
2017-02-18T09:48:18.692Z,163.1
2017-02-18T09:48:29.276Z,168.8
2017-02-18T09:48:38.688Z,168.8
2017-02-18T09:48:48.679Z,168.8
2017-02-18T09:48:58.963Z,168.8
2017-02-18T09:49:08.261Z,174.4
2017-02-18T09:49:18.722Z,174.4
2017-02-18T09:49:28.648Z,191.3
2017-02-18T09:49:38.646Z,191.3
2017-02-18T09:49:48.634Z,202.5
2017-02-18T09:49:58.229Z,208.1
2017-02-18T09:50:08.630Z,258.8
2017-02-18T09:50:18.643Z,298.1
2017-02-18T09:50:28.616Z,303.8
2017-02-18T09:50:38.900Z,309.4
2017-02-18T09:50:48.611Z,315
2017-02-18T09:50:59.175Z,309.4
2017-02-18T09:51:08.177Z,208.1
2017-02-18T09:51:18.867Z,230.6
2017-02-18T09:51:28.176Z,241.9
2017-02-18T09:51:38.572Z,208.1
2017-02-18T09:51:48.573Z,185.6
2017-02-18T09:51:58.137Z,180
2017-02-18T09:52:08.555Z,180
2017-02-18T09:52:18.576Z,180
2017-02-18T09:52:28.538Z,180
2017-02-18T09:52:38.561Z,185.6
2017-02-18T09:52:48.555Z,241.9
2017-02-18T09:52:58.541Z,298.1
2017-02-18T09:53:08.122Z,230.6
2017-02-18T09:53:18.527Z,219.4
2017-02-18T09:53:28.517Z,230.6
2017-02-18T09:53:38.802Z,225
2017-02-18T09:53:48.801Z,219.4
2017-02-18T09:53:58.507Z,208.1
2017-02-18T09:54:07.656Z,202.5
2017-02-18T09:54:18.473Z,208.1
2017-02-18T09:54:28.766Z,202.5
2017-02-18T09:54:38.459Z,191.3
2017-02-18T09:54:48.449Z,185.6
2017-02-18T09:54:57.913Z,180
2017-02-18T09:55:08.057Z,180
2017-02-18T09:55:18.445Z,180
2017-02-18T09:55:28.300Z,180
2017-02-18T09:55:38.441Z,180
2017-02-18T09:55:48.425Z,180
2017-02-18T09:55:58.013Z,180
2017-02-18T09:56:08.417Z,180
2017-02-18T09:56:18.413Z,174.4
2017-02-18T09:56:28.029Z,180
2017-02-18T09:56:37.973Z,174.4
2017-02-18T09:56:47.976Z,174.4
2017-02-18T09:56:58.098Z,174.4
2017-02-18T09:57:08.083Z,180
2017-02-18T09:57:18.382Z,180
2017-02-18T09:57:27.971Z,180
2017-02-18T09:57:38.372Z,180
2017-02-18T09:57:48.360Z,180
2017-02-18T09:57:58.366Z,185.6
2017-02-18T09:58:08.205Z,191.3
2017-02-18T09:58:17.907Z,191.3
2017-02-18T09:58:27.909Z,196.9
2017-02-18T09:58:38.336Z,196.9
2017-02-18T09:58:48.330Z,191.3
2017-02-18T09:58:58.334Z,196.9
2017-02-18T09:59:07.875Z,202.5
2017-02-18T09:59:17.889Z,196.9
2017-02-18T09:59:28.294Z,191.3
2017-02-18T09:59:38.286Z,191.3
2017-02-18T09:59:47.443Z,191.3
2017-02-18T09:59:58.547Z,191.3
2017-02-18T10:00:07.425Z,230.6
2017-02-18T10:00:18.544Z,191.3
2017-02-18T10:00:28.258Z,196.9
2017-02-18T10:00:38.268Z,196.9
2017-02-18T10:00:47.839Z,202.5
2017-02-18T10:00:58.251Z,219.4
2017-02-18T10:01:07.844Z,236.3
2017-02-18T10:01:18.231Z,225
2017-02-18T10:01:28.232Z,213.8
2017-02-18T10:01:38.217Z,208.1
2017-02-18T10:01:48.493Z,208.1
2017-02-18T10:01:58.252Z,208.1
2017-02-18T10:02:07.785Z,208.1
2017-02-18T10:02:18.214Z,208.1
2017-02-18T10:02:28.202Z,208.1
2017-02-18T10:02:38.195Z,219.4
2017-02-18T10:02:48.163Z,219.4
2017-02-18T10:02:58.154Z,236.3
2017-02-18T10:03:08.194Z,219.4
2017-02-18T10:03:18.222Z,219.4
2017-02-18T10:03:28.149Z,219.4
2017-02-18T10:03:38.136Z,213.8
2017-02-18T10:03:48.159Z,219.4
2017-02-18T10:03:58.182Z,219.4
2017-02-18T10:04:07.291Z,219.4
2017-02-18T10:04:18.132Z,213.8
2017-02-18T10:04:28.122Z,213.8
2017-02-18T10:04:37.271Z,208.1
2017-02-18T10:04:47.684Z,208.1
2017-02-18T10:04:58.092Z,213.8
2017-02-18T10:05:07.666Z,213.8
2017-02-18T10:05:18.099Z,208.1
2017-02-18T10:05:28.099Z,208.1
2017-02-18T10:05:38.377Z,213.8
2017-02-18T10:05:47.646Z,213.8
2017-02-18T10:05:58.056Z,236.3
2017-02-18T10:06:07.647Z,281.3
2017-02-18T10:06:17.634Z,270
2017-02-18T10:06:28.037Z,275.6
2017-02-18T10:06:38.062Z,247.5
2017-02-18T10:06:47.614Z,264.4
2017-02-18T10:06:57.617Z,247.5
2017-02-18T10:07:07.660Z,236.3
2017-02-18T10:07:18.017Z,225
2017-02-18T10:07:28.015Z,225
2017-02-18T10:07:38.002Z,225
2017-02-18T10:07:47.582Z,219.4
2017-02-18T10:07:58.014Z,219.4
2017-02-18T10:08:08.006Z,219.4
2017-02-18T10:08:17.985Z,219.4
2017-02-18T10:08:27.976Z,213.8
2017-02-18T10:08:37.541Z,213.8
2017-02-18T10:08:47.540Z,213.8
2017-02-18T10:08:57.969Z,213.8
2017-02-18T10:09:07.530Z,213.8
2017-02-18T10:09:17.966Z,213.8
2017-02-18T10:09:27.943Z,213.8
2017-02-18T10:09:38.205Z,213.8
2017-02-18T10:09:47.941Z,213.8
2017-02-18T10:09:58.279Z,208.1
2017-02-18T10:10:07.500Z,208.1
2017-02-18T10:10:17.916Z,208.1
2017-02-18T10:10:27.495Z,213.8
2017-02-18T10:10:38.211Z,213.8
2017-02-18T10:10:47.476Z,213.8
2017-02-18T10:10:57.879Z,219.4
2017-02-18T10:11:08.186Z,225
2017-02-18T10:11:17.875Z,225
2017-02-18T10:11:27.451Z,241.9
2017-02-18T10:11:37.879Z,247.5
2017-02-18T10:11:47.469Z,225
2017-02-18T10:11:57.429Z,213.8
2017-02-18T10:12:07.000Z,208.1
2017-02-18T10:12:17.433Z,196.9
2017-02-18T10:12:27.824Z,191.3
2017-02-18T10:12:37.815Z,191.3
2017-02-18T10:12:47.816Z,191.3
2017-02-18T10:12:57.820Z,191.3
2017-02-18T10:13:07.393Z,191.3
2017-02-18T10:13:17.806Z,196.9
2017-02-18T10:13:27.370Z,202.5
2017-02-18T10:13:37.781Z,202.5
2017-02-18T10:13:47.786Z,202.5
2017-02-18T10:13:57.770Z,213.8
2017-02-18T10:14:07.358Z,208.1
2017-02-18T10:14:18.042Z,213.8
2017-02-18T10:14:28.068Z,213.8
2017-02-18T10:14:37.757Z,213.8
2017-02-18T10:14:47.752Z,213.8
2017-02-18T10:14:57.782Z,219.4
2017-02-18T10:15:07.327Z,230.6
2017-02-18T10:15:17.729Z,219.4
2017-02-18T10:15:27.312Z,219.4
2017-02-18T10:15:37.726Z,225
2017-02-18T10:15:47.714Z,225
2017-02-18T10:15:57.694Z,236.3
2017-02-18T10:16:06.930Z,253.1
2017-02-18T10:16:17.973Z,247.5
2017-02-18T10:16:27.749Z,236.3
2017-02-18T10:16:37.681Z,264.4
2017-02-18T10:16:47.686Z,275.6
2017-02-18T10:16:57.692Z,253.1
2017-02-18T10:17:07.667Z,230.6
2017-02-18T10:17:17.275Z,247.5
2017-02-18T10:17:27.666Z,230.6
2017-02-18T10:17:37.703Z,213.8
2017-02-18T10:17:47.633Z,213.8
2017-02-18T10:17:57.652Z,213.8
2017-02-18T10:18:07.627Z,213.8
2017-02-18T10:18:17.617Z,202.5
2017-02-18T10:18:27.608Z,196.9
2017-02-18T10:18:37.213Z,191.3
2017-02-18T10:18:47.609Z,185.6
2017-02-18T10:18:57.607Z,185.6
2017-02-18T10:19:07.603Z,191.3
2017-02-18T10:19:17.168Z,191.3
2017-02-18T10:19:27.863Z,191.3
2017-02-18T10:19:37.569Z,191.3
2017-02-18T10:19:47.150Z,191.3
2017-02-18T10:19:57.566Z,185.6
2017-02-18T10:20:06.883Z,185.6
2017-02-18T10:20:17.554Z,185.6
2017-02-18T10:20:27.543Z,185.6
2017-02-18T10:20:37.532Z,191.3
2017-02-18T10:20:47.125Z,196.9
2017-02-18T10:20:57.537Z,196.9
2017-02-18T10:21:07.540Z,213.8
2017-02-18T10:21:17.516Z,208.1
2017-02-18T10:21:27.827Z,208.1
2017-02-18T10:21:37.074Z,208.1
2017-02-18T10:21:47.495Z,202.5
2017-02-18T10:21:57.485Z,202.5
2017-02-18T10:22:07.091Z,202.5
2017-02-18T10:22:17.806Z,202.5
2017-02-18T10:22:27.046Z,196.9
2017-02-18T10:22:37.481Z,196.9
2017-02-18T10:22:47.461Z,196.9
2017-02-18T10:22:57.460Z,196.9
2017-02-18T10:23:07.047Z,196.9
2017-02-18T10:23:17.443Z,196.9
2017-02-18T10:23:27.432Z,196.9
2017-02-18T10:23:37.716Z,196.9
2017-02-18T10:23:47.038Z,191.3
2017-02-18T10:23:57.431Z,191.3
2017-02-18T10:24:06.988Z,191.3
2017-02-18T10:24:17.482Z,191.3
2017-02-18T10:24:26.977Z,191.3
2017-02-18T10:24:37.461Z,196.9
2017-02-18T10:24:47.392Z,196.9
2017-02-18T10:24:57.391Z,196.9
2017-02-18T10:25:07.667Z,196.9
2017-02-18T10:25:16.960Z,196.9
2017-02-18T10:25:27.381Z,196.9
2017-02-18T10:25:36.974Z,196.9
2017-02-18T10:25:47.645Z,196.9
2017-02-18T10:25:57.353Z,196.9
2017-02-18T10:26:06.925Z,191.3
2017-02-18T10:26:16.937Z,191.3
2017-02-18T10:26:27.327Z,191.3
2017-02-18T10:26:37.337Z,191.3
2017-02-18T10:26:46.911Z,191.3
2017-02-18T10:26:57.602Z,191.3
2017-02-18T10:27:06.479Z,185.6
2017-02-18T10:27:17.299Z,185.6
2017-02-18T10:27:27.313Z,185.6
2017-02-18T10:27:37.290Z,185.6
2017-02-18T10:27:47.293Z,185.6
2017-02-18T10:27:57.285Z,185.6
2017-02-18T10:28:07.282Z,185.6
2017-02-18T10:28:17.297Z,185.6
2017-02-18T10:28:27.267Z,185.6
2017-02-18T10:28:37.254Z,185.6
2017-02-18T10:28:47.253Z,185.6
2017-02-18T10:28:57.544Z,185.6
2017-02-18T10:29:06.958Z,185.6
2017-02-18T10:29:17.246Z,185.6
2017-02-18T10:29:27.235Z,191.3
2017-02-18T10:29:37.223Z,185.6
2017-02-18T10:29:47.103Z,185.6
2017-02-18T10:29:57.221Z,185.6
2017-02-18T10:30:07.505Z,185.6
2017-02-18T10:30:16.778Z,185.6
2017-02-18T10:30:27.229Z,191.3
2017-02-18T10:30:37.178Z,191.3
2017-02-18T10:30:47.214Z,191.3
2017-02-18T10:30:57.193Z,191.3
2017-02-18T10:31:07.185Z,196.9
2017-02-18T10:31:17.179Z,196.9
2017-02-18T10:31:27.172Z,202.5
2017-02-18T10:31:36.730Z,202.5
2017-02-18T10:31:47.178Z,208.1
2017-02-18T10:31:57.150Z,213.8
2017-02-18T10:32:06.721Z,225
2017-02-18T10:32:17.403Z,230.6
2017-02-18T10:32:27.136Z,225
2017-02-18T10:32:37.127Z,241.9
2017-02-18T10:32:47.098Z,258.8
2017-02-18T10:32:57.123Z,258.8
2017-02-18T10:33:07.111Z,230.6
2017-02-18T10:33:17.102Z,225
2017-02-18T10:33:26.670Z,219.4
2017-02-18T10:33:37.082Z,213.8
2017-02-18T10:33:46.253Z,213.8
2017-02-18T10:33:56.647Z,225
2017-02-18T10:34:06.640Z,213.8
2017-02-18T10:34:17.068Z,213.8
2017-02-18T10:34:26.632Z,213.8
2017-02-18T10:34:36.627Z,225
2017-02-18T10:34:46.624Z,247.5
2017-02-18T10:34:57.060Z,213.8
2017-02-18T10:35:06.642Z,213.8
2017-02-18T10:35:17.027Z,208.1
2017-02-18T10:35:27.016Z,191.3
2017-02-18T10:35:36.599Z,180
2017-02-18T10:35:47.009Z,180
2017-02-18T10:35:57.001Z,180
2017-02-18T10:36:06.995Z,180
2017-02-18T10:36:16.989Z,185.6
2017-02-18T10:36:27.278Z,185.6
2017-02-18T10:36:36.569Z,191.3
2017-02-18T10:36:47.261Z,191.3
2017-02-18T10:36:57.001Z,196.9
2017-02-18T10:37:06.561Z,208.1
2017-02-18T10:37:16.948Z,208.1
2017-02-18T10:37:26.942Z,213.8
2017-02-18T10:37:36.949Z,208.1
2017-02-18T10:37:46.937Z,213.8
2017-02-18T10:37:56.941Z,213.8
2017-02-18T10:38:06.522Z,213.8
2017-02-18T10:38:16.942Z,219.4
2017-02-18T10:38:26.915Z,213.8
2017-02-18T10:38:36.907Z,213.8
2017-02-18T10:38:46.903Z,208.1
2017-02-18T10:38:56.890Z,208.1
2017-02-18T10:39:06.899Z,208.1